Maple Glen, PA

3:54 PM EDT on April 18, 2015 (GMT -0400)
Maple Glen | | Change Station
CLOSE
Current Station
Personal Weather Station
Location: Maple Glen, PA
Elevation: 367 ft
Nearby Weather Stations

Elev 367 ft 40.16 °N, 75.17 °W | Updated 1 second ago

Clear
Clear
83.1 °F
Feels Like 80 °F
N
9.2
Wind Variable Wind from NW
Gusts 9.2 mph

Today
High -- | Low -- °F
--% Chance of Precip.
Yesterday
High -- | Low -- °F
Precip. -- in
6:18 AM 7:42 PM
New Moon, 0% visible
Pressure 29.91 in
Visibility 10.0 miles
Clouds Clear
Heat Index 80 °F
Dew Point 31 °F
Humidity 15%
Rainfall 0.00 in
Snow Depth Not available.
UV 6 out of 12
Pollen 11.30 out of 12
Air Quality Not available.
Flu Activity Sporadic
METAR KLOM 181935Z AUTO 27006KT 10SM CLR 26/05 A2991 RMK AO1

More Conditions Fewer Conditions

Pressure 29.91 in
Visibility 10.0 miles
Clouds Clear
Heat Index 80 °F
Dew Point 31 °F
Humidity 15%
Rainfall 0.00 in
Snow Depth Not available.
UV 6 out of 12
Pollen 11.30 out of 12
Air Quality Not available.
Flu Activity Sporadic
METAR KLOM 181935Z AUTO 27006KT 10SM CLR 26/05 A2991 RMK AO1

More Conditions Fewer Conditions

10-Day Weather Forecast

Almanac

Astronomy

Apr. 18, 2015 Rise Set
Actual Time
Civil Twilight
Nautical Twilight
Astronomical Twilight
Moon
Length of Visible Light
Length of Day
Tomorrow will be .
, % of the Moon is Illuminated

Today's Extremes

State Highs State Lows

Community

WunderPhotos

Upload Photos

1,814,504 photos uploaded!

WunderBlogs® & News

Nearby

Air Quality

  Air Quality AQ Index Pollutant
Not available.

Snow Depth

Station Depth Elevation

Earthquake Activity

City Distance Mag. Time & Date
Minimum magnitude displayed is 2.5.

Coastal Water Temperatures

Place Temperature

Stations

Nearby Weather Stations

Station Location Temp. Windchill Dew Point Humidity Wind Precip. Elev Updated Type